createdAt,value
2018-07-23T00:02:36.484Z,99.90
2018-07-23T00:05:04.087Z,99.90
2018-07-23T00:07:31.715Z,99.90
2018-07-23T00:09:59.343Z,99.90
2018-07-23T00:12:26.957Z,99.90
2018-07-23T00:14:54.587Z,99.90
2018-07-23T00:17:22.219Z,99.90
2018-07-23T00:19:49.834Z,99.90
2018-07-23T00:22:17.435Z,99.90
2018-07-23T00:24:45.091Z,99.90
2018-07-23T00:27:12.691Z,99.90
2018-07-23T00:29:40.359Z,99.90
2018-07-23T00:32:08.116Z,99.90
2018-07-23T00:34:35.744Z,99.90
2018-07-23T00:37:03.583Z,99.90
2018-07-23T00:39:31.204Z,99.90
2018-07-23T00:41:58.817Z,99.90
2018-07-23T00:44:26.498Z,99.90
2018-07-23T00:46:54.105Z,99.90
2018-07-23T00:49:21.715Z,99.90
2018-07-23T00:51:49.315Z,99.90
2018-07-23T00:54:16.935Z,99.90
2018-07-23T00:56:44.531Z,99.90
2018-07-23T00:59:12.139Z,99.90
2018-07-23T01:01:39.731Z,99.90
2018-07-23T01:04:07.368Z,99.90
2018-07-23T01:06:34.959Z,99.90
2018-07-23T01:09:02.628Z,99.90
2018-07-23T01:11:30.222Z,99.90
2018-07-23T01:13:57.857Z,99.90
2018-07-23T01:16:25.455Z,99.90
2018-07-23T01:18:53.231Z,99.90
2018-07-23T01:21:20.867Z,99.90
2018-07-23T01:23:48.460Z,99.90
2018-07-23T01:26:16.143Z,99.90
2018-07-23T01:28:43.736Z,99.90
2018-07-23T01:31:11.352Z,99.90
2018-07-23T01:33:38.972Z,99.90
2018-07-23T01:36:06.592Z,99.90
2018-07-23T01:38:34.192Z,99.90
2018-07-23T01:41:01.815Z,99.90
2018-07-23T01:43:29.410Z,99.90
2018-07-23T01:45:57.027Z,99.90
2018-07-23T01:48:24.624Z,99.90
2018-07-23T01:50:52.231Z,99.90
2018-07-23T01:53:19.833Z,99.90
2018-07-23T01:55:47.456Z,99.90
2018-07-23T01:58:15.079Z,99.90
2018-07-23T02:00:42.700Z,99.90
2018-07-23T02:03:10.301Z,99.90
2018-07-23T02:05:37.919Z,99.90
2018-07-23T02:08:05.523Z,99.90
2018-07-23T02:10:33.140Z,99.90
2018-07-23T02:13:00.751Z,99.90
2018-07-23T02:15:28.359Z,99.90
2018-07-23T02:17:55.967Z,99.90
2018-07-23T02:20:23.578Z,99.90
2018-07-23T02:22:51.175Z,99.90
2018-07-23T02:25:18.813Z,99.90
2018-07-23T02:27:46.416Z,99.90
2018-07-23T02:30:14.025Z,99.90
2018-07-23T02:32:41.636Z,99.90
2018-07-23T02:35:09.231Z,99.90
2018-07-23T02:37:36.867Z,99.90
2018-07-23T02:40:04.477Z,99.90
2018-07-23T02:42:32.093Z,99.90
2018-07-23T02:44:59.774Z,99.90
2018-07-23T02:47:27.468Z,99.90
2018-07-23T02:49:55.069Z,99.90
2018-07-23T02:52:22.683Z,99.90
2018-07-23T02:54:50.307Z,99.90
2018-07-23T02:57:17.925Z,99.90
2018-07-23T02:59:45.733Z,99.90
2018-07-23T03:02:13.267Z,99.90
2018-07-23T03:04:40.884Z,99.90
2018-07-23T03:07:08.496Z,99.90
2018-07-23T03:09:36.092Z,99.90
2018-07-23T03:12:03.748Z,99.90
2018-07-23T03:14:31.353Z,99.90
2018-07-23T03:16:59.051Z,99.90
2018-07-23T03:19:26.647Z,99.90
2018-07-23T03:21:54.436Z,99.90
2018-07-23T03:24:21.962Z,99.90
2018-07-23T03:26:49.579Z,99.90
2018-07-23T03:29:17.178Z,99.90
2018-07-23T03:31:44.904Z,99.90
2018-07-23T03:34:12.503Z,99.90
2018-07-23T03:36:40.100Z,99.90
2018-07-23T03:39:08.671Z,99.90
2018-07-23T03:41:36.273Z,99.90
2018-07-23T03:44:03.894Z,99.90
2018-07-23T03:46:31.493Z,99.90
2018-07-23T03:48:59.116Z,99.90
2018-07-23T03:53:54.120Z,99.90
2018-07-23T03:56:21.722Z,99.90
2018-07-23T03:58:49.334Z,99.90
2018-07-23T04:01:17.491Z,99.90
2018-07-23T04:03:45.106Z,99.90
2018-07-23T04:06:12.712Z,99.90
2018-07-23T04:08:40.328Z,99.90
2018-07-23T04:11:07.951Z,99.90
2018-07-23T04:13:35.666Z,99.90
2018-07-23T04:16:03.261Z,99.90
2018-07-23T04:18:30.883Z,99.90
2018-07-23T04:20:58.478Z,99.90
2018-07-23T04:23:26.093Z,99.90
2018-07-23T04:25:53.687Z,99.90
2018-07-23T04:28:21.437Z,99.90
2018-07-23T04:30:49.193Z,99.90
2018-07-23T04:33:16.807Z,99.90
2018-07-23T04:35:44.398Z,99.90
2018-07-23T04:38:12.014Z,99.90
2018-07-23T04:40:39.612Z,99.90
2018-07-23T04:43:07.215Z,99.90
2018-07-23T04:45:34.831Z,99.90
2018-07-23T04:48:02.455Z,99.90
2018-07-23T04:50:30.100Z,99.90
2018-07-23T04:52:57.703Z,99.90
2018-07-23T04:55:25.323Z,99.90
2018-07-23T04:57:52.919Z,99.90
2018-07-23T05:00:20.544Z,99.90
2018-07-23T05:02:48.144Z,99.90
2018-07-23T05:05:15.757Z,99.90
2018-07-23T05:07:43.364Z,99.90
2018-07-23T05:10:11.139Z,99.90
2018-07-23T05:12:38.830Z,99.90
2018-07-23T05:15:06.495Z,99.90
2018-07-23T05:17:34.086Z,99.90
2018-07-23T05:22:29.059Z,99.90
2018-07-23T05:24:56.675Z,99.90
2018-07-23T05:27:24.272Z,99.90
2018-07-23T05:29:51.888Z,99.90
2018-07-23T05:32:19.483Z,99.90
2018-07-23T05:34:47.103Z,99.90
2018-07-23T05:37:14.699Z,99.90
2018-07-23T05:39:42.319Z,99.90
2018-07-23T05:42:09.917Z,99.90
2018-07-23T05:44:37.543Z,99.90
2018-07-23T05:47:05.139Z,99.90
2018-07-23T05:49:32.763Z,99.90
2018-07-23T05:52:00.358Z,99.90
2018-07-23T05:54:28.104Z,99.90
2018-07-23T05:56:55.728Z,99.90
2018-07-23T05:59:23.323Z,99.90
2018-07-23T06:01:50.939Z,99.90
2018-07-23T06:04:18.538Z,99.90
2018-07-23T06:06:46.234Z,99.90
2018-07-23T06:09:13.791Z,99.90
2018-07-23T06:11:41.419Z,99.90
2018-07-23T06:14:09.042Z,99.90
2018-07-23T06:16:36.671Z,99.90
2018-07-23T06:19:04.299Z,99.90
2018-07-23T06:21:31.998Z,99.90
2018-07-23T06:23:59.603Z,99.90
2018-07-23T06:26:27.231Z,99.90
2018-07-23T06:28:54.840Z,99.90
2018-07-23T06:31:22.608Z,99.90
2018-07-23T06:33:50.348Z,99.90
2018-07-23T06:36:17.939Z,99.90
2018-07-23T06:41:12.903Z,99.90
2018-07-23T06:43:40.503Z,99.90
2018-07-23T06:46:08.123Z,99.90
2018-07-23T06:48:35.723Z,99.90
2018-07-23T06:51:03.392Z,99.90
2018-07-23T06:53:31.135Z,99.90
2018-07-23T06:55:59.033Z,99.90
2018-07-23T06:58:26.696Z,99.90
2018-07-23T07:00:54.295Z,99.90
2018-07-23T07:03:21.914Z,99.90
2018-07-23T07:05:49.583Z,99.90
2018-07-23T07:08:17.395Z,99.90
2018-07-23T07:10:45.002Z,99.90
2018-07-23T07:13:12.640Z,99.90
2018-07-23T07:15:40.243Z,99.90
2018-07-23T07:18:07.874Z,99.90
2018-07-23T07:20:35.466Z,99.90
2018-07-23T07:25:30.519Z,99.90
2018-07-23T07:27:58.099Z,99.90
2018-07-23T07:30:25.694Z,99.90
2018-07-23T07:32:53.314Z,99.90
2018-07-23T07:35:20.906Z,99.90
2018-07-23T07:37:48.529Z,99.90
2018-07-23T07:40:16.175Z,99.90
2018-07-23T07:42:43.792Z,99.90
2018-07-23T07:45:11.390Z,99.90
2018-07-23T07:47:39.008Z,99.90
2018-07-23T07:50:06.611Z,99.90
2018-07-23T07:52:34.247Z,99.90
2018-07-23T07:55:01.856Z,99.90
2018-07-23T07:57:29.468Z,99.90
2018-07-23T07:59:57.063Z,99.90
2018-07-23T08:02:24.688Z,99.90
2018-07-23T08:04:52.280Z,99.90
2018-07-23T08:07:19.887Z,99.90
2018-07-23T08:09:47.502Z,99.90
2018-07-23T08:12:15.115Z,99.90
2018-07-23T08:14:42.731Z,99.90
2018-07-23T08:17:10.327Z,99.90
2018-07-23T08:19:37.940Z,99.90
2018-07-23T08:22:05.539Z,99.90
2018-07-23T08:24:33.162Z,99.90
2018-07-23T08:27:00.832Z,99.90
2018-07-23T08:29:28.447Z,99.90
2018-07-23T08:31:56.138Z,99.90
2018-07-23T08:34:23.688Z,99.90
2018-07-23T08:36:51.327Z,99.90
2018-07-23T08:41:46.315Z,99.90
2018-07-23T08:44:13.922Z,99.90
2018-07-23T08:46:41.519Z,99.90
2018-07-23T08:49:09.132Z,99.90
2018-07-23T08:51:36.735Z,99.90
2018-07-23T08:54:04.359Z,99.90
2018-07-23T08:56:31.959Z,99.90
2018-07-23T08:58:59.579Z,99.90
2018-07-23T09:01:27.176Z,99.90
2018-07-23T09:03:54.836Z,99.90
2018-07-23T09:06:22.439Z,99.90
2018-07-23T09:08:50.114Z,99.90
2018-07-23T09:11:17.696Z,99.90
2018-07-23T09:13:45.343Z,99.90
2018-07-23T09:16:12.939Z,99.90
2018-07-23T09:18:40.536Z,99.90
2018-07-23T09:21:08.151Z,99.90
2018-07-23T09:23:35.750Z,99.90
2018-07-23T09:26:03.363Z,99.90
2018-07-23T09:28:30.959Z,99.90
2018-07-23T09:33:26.032Z,99.90
2018-07-23T09:35:54.136Z,99.90
2018-07-23T09:38:22.508Z,99.90
2018-07-23T09:40:50.399Z,99.90
2018-07-23T09:43:18.259Z,99.90
2018-07-23T09:45:45.871Z,99.90
2018-07-23T09:48:13.466Z,99.90
2018-07-23T09:50:42.058Z,99.90
2018-07-23T09:53:09.675Z,99.90
2018-07-23T09:55:37.299Z,99.90
2018-07-23T09:58:04.927Z,99.90
2018-07-23T10:00:38.107Z,99.90
2018-07-23T10:03:05.782Z,99.90
2018-07-23T10:05:33.350Z,99.90
2018-07-23T10:08:00.956Z,99.90
2018-07-23T10:10:28.603Z,99.90
2018-07-23T10:12:56.218Z,99.90
2018-07-23T10:15:23.840Z,99.90
2018-07-23T10:17:51.440Z,99.90
2018-07-23T10:20:19.111Z,99.90
2018-07-23T10:22:46.711Z,99.90
2018-07-23T10:25:14.474Z,99.90
2018-07-23T10:27:42.071Z,99.90
2018-07-23T10:30:09.671Z,99.90
2018-07-23T10:32:37.287Z,99.90
2018-07-23T10:35:04.889Z,99.90
2018-07-23T10:37:32.511Z,99.90
2018-07-23T10:40:00.108Z,99.90
2018-07-23T10:42:27.723Z,99.90
2018-07-23T10:44:55.556Z,99.90
2018-07-23T10:47:23.558Z,99.90
2018-07-23T10:49:51.159Z,99.90
2018-07-23T10:52:18.784Z,99.90
2018-07-23T10:54:46.396Z,99.90
2018-07-23T10:57:14.172Z,99.90
2018-07-23T10:59:41.785Z,99.90
2018-07-23T11:02:09.411Z,99.90
2018-07-23T11:04:37.131Z,99.90
2018-07-23T11:07:04.771Z,99.90
2018-07-23T11:09:32.381Z,99.90
2018-07-23T11:12:00.000Z,99.90
2018-07-23T11:14:27.623Z,99.90
2018-07-23T11:16:55.242Z,99.90
2018-07-23T11:19:22.900Z,99.90
2018-07-23T11:21:50.480Z,99.90
2018-07-23T11:24:18.081Z,99.90
2018-07-23T11:26:45.719Z,99.90
2018-07-23T11:29:13.327Z,99.90
2018-07-23T11:31:40.924Z,99.90
2018-07-23T11:34:08.543Z,99.90
2018-07-23T11:36:36.199Z,99.90
2018-07-23T11:39:05.639Z,99.90
2018-07-23T11:41:33.288Z,99.90
2018-07-23T11:44:00.879Z,99.90
2018-07-23T11:46:28.475Z,99.90
2018-07-23T11:48:56.092Z,99.90
2018-07-23T11:51:23.692Z,99.90
2018-07-23T11:53:51.311Z,99.90
2018-07-23T11:56:18.916Z,99.90
2018-07-23T12:01:13.913Z,99.90
2018-07-23T12:03:41.527Z,99.90
2018-07-23T12:06:09.123Z,99.90
2018-07-23T12:08:36.739Z,99.90
2018-07-23T12:11:04.331Z,99.90
2018-07-23T12:13:31.995Z,99.90
2018-07-23T12:15:59.588Z,99.90
2018-07-23T12:18:27.206Z,99.90
2018-07-23T12:20:54.798Z,99.90
2018-07-23T12:23:22.398Z,99.90
2018-07-23T12:25:50.011Z,99.90
2018-07-23T12:28:17.797Z,99.90
2018-07-23T12:30:45.418Z,99.90
2018-07-23T12:33:13.016Z,99.90
2018-07-23T12:35:40.635Z,99.90
2018-07-23T12:38:08.240Z,99.90
2018-07-23T12:40:35.859Z,99.90
2018-07-23T12:43:03.467Z,99.90
2018-07-23T12:45:31.083Z,99.90
2018-07-23T12:47:58.680Z,99.90
2018-07-23T12:50:26.296Z,99.90
2018-07-23T12:52:53.903Z,99.90
2018-07-23T12:55:21.515Z,99.90
2018-07-23T12:57:49.151Z,99.90
2018-07-23T13:00:16.770Z,99.60
2018-07-23T13:02:44.399Z,99.90
2018-07-23T13:05:12.016Z,99.70
2018-07-23T13:07:39.615Z,99.70
2018-07-23T13:10:07.243Z,99.40
2018-07-23T13:12:34.850Z,99.80
2018-07-23T13:15:02.468Z,99.60
2018-07-23T13:17:30.063Z,99.90
2018-07-23T13:19:57.679Z,99.80
2018-07-23T13:22:25.275Z,99.90
2018-07-23T13:24:52.971Z,99.60
2018-07-23T13:27:20.627Z,99.90
2018-07-23T13:29:48.250Z,99.70
2018-07-23T13:32:15.876Z,99.00
2018-07-23T13:37:10.964Z,99.00
2018-07-23T13:39:38.563Z,98.10
2018-07-23T13:42:06.184Z,97.80
2018-07-23T13:44:33.811Z,98.70
2018-07-23T13:47:01.437Z,98.80
2018-07-23T13:49:29.036Z,97.90
2018-07-23T13:51:56.656Z,98.70
2018-07-23T13:54:24.298Z,98.50
2018-07-23T13:56:51.925Z,98.70
2018-07-23T13:59:19.527Z,97.50
2018-07-23T14:01:47.160Z,98.20
2018-07-23T14:04:14.764Z,98.00
2018-07-23T14:06:42.381Z,97.60
2018-07-23T14:09:11.539Z,98.40
2018-07-23T14:11:39.222Z,98.70
2018-07-23T14:14:06.863Z,97.50
2018-07-23T14:16:34.679Z,97.70
2018-07-23T14:19:02.310Z,99.90
2018-07-23T14:21:30.127Z,98.20
2018-07-23T14:23:57.724Z,97.50
2018-07-23T14:26:25.343Z,97.40
2018-07-23T14:31:20.348Z,96.20
2018-07-23T14:33:47.967Z,96.80
2018-07-23T14:36:15.563Z,97.10
2018-07-23T14:38:43.184Z,97.00
2018-07-23T14:41:10.792Z,97.80
2018-07-23T14:43:38.711Z,96.80
2018-07-23T14:46:06.311Z,97.10
2018-07-23T14:48:34.039Z,96.70
2018-07-23T14:51:01.636Z,97.80
2018-07-23T14:53:29.250Z,97.40
2018-07-23T14:55:56.847Z,96.50
2018-07-23T14:58:24.467Z,96.60
2018-07-23T15:00:52.060Z,97.30
2018-07-23T15:03:19.677Z,95.10
2018-07-23T15:05:47.300Z,95.10
2018-07-23T15:08:14.998Z,96.10
2018-07-23T15:10:42.602Z,96.20
2018-07-23T15:13:10.260Z,96.00
2018-07-23T15:15:37.855Z,96.00
2018-07-23T15:18:05.471Z,94.50
2018-07-23T15:20:33.063Z,94.10
2018-07-23T15:23:00.678Z,94.60
2018-07-23T15:25:28.280Z,94.20
2018-07-23T15:27:55.897Z,92.90
2018-07-23T15:30:23.496Z,92.70
2018-07-23T15:32:51.119Z,93.60
2018-07-23T15:35:18.716Z,92.80
2018-07-23T15:37:46.349Z,93.80
2018-07-23T15:40:13.990Z,93.30
2018-07-23T15:42:41.607Z,92.90
2018-07-23T15:45:09.296Z,92.00
2018-07-23T15:47:36.866Z,92.30
2018-07-23T15:50:04.535Z,91.90
2018-07-23T15:52:33.135Z,91.80
2018-07-23T15:57:28.224Z,91.00
2018-07-23T15:59:55.837Z,91.50
2018-07-23T16:02:23.442Z,91.90
2018-07-23T16:04:51.056Z,90.90
2018-07-23T16:07:18.650Z,90.70
2018-07-23T16:09:46.268Z,90.20
2018-07-23T16:12:13.867Z,91.00
2018-07-23T16:14:41.501Z,89.50
2018-07-23T16:17:09.099Z,89.10
2018-07-23T16:19:36.706Z,90.00
2018-07-23T16:22:04.316Z,88.40
2018-07-23T16:24:31.939Z,90.50
2018-07-23T16:26:59.536Z,89.60
2018-07-23T16:29:27.159Z,91.40
2018-07-23T16:31:54.750Z,88.60
2018-07-23T16:34:22.358Z,89.70
2018-07-23T16:36:49.958Z,87.60
2018-07-23T16:39:17.603Z,86.10
2018-07-23T16:41:49.673Z,85.80
2018-07-23T16:44:17.467Z,87.30
2018-07-23T16:46:45.127Z,87.20
2018-07-23T16:49:12.723Z,87.50
2018-07-23T16:51:40.335Z,86.00
2018-07-23T16:54:07.961Z,84.80
2018-07-23T16:56:35.575Z,86.70
2018-07-23T16:59:03.171Z,86.00
2018-07-23T17:01:30.786Z,87.00
2018-07-23T17:03:58.379Z,87.70
2018-07-23T17:06:25.994Z,87.90
2018-07-23T17:08:53.582Z,88.90
2018-07-23T17:11:21.200Z,90.30
2018-07-23T17:13:48.820Z,89.90
2018-07-23T17:16:16.443Z,90.90
2018-07-23T17:18:44.067Z,90.60
2018-07-23T17:21:11.687Z,89.70
2018-07-23T17:23:39.287Z,90.50
2018-07-23T17:26:07.176Z,89.00
2018-07-23T17:28:34.856Z,90.70
2018-07-23T17:31:02.635Z,89.60
2018-07-23T17:33:30.303Z,91.20
2018-07-23T17:35:57.954Z,90.60
2018-07-23T17:38:25.563Z,91.00
2018-07-23T17:40:53.199Z,90.70
2018-07-23T17:43:20.795Z,91.60
2018-07-23T17:45:48.500Z,91.10
2018-07-23T17:48:16.099Z,91.90
2018-07-23T17:50:43.851Z,91.90
2018-07-23T17:53:11.451Z,92.30
2018-07-23T17:55:39.143Z,92.10
2018-07-23T17:58:06.938Z,92.00
2018-07-23T18:00:34.531Z,93.00
2018-07-23T18:03:02.155Z,92.00
2018-07-23T18:05:29.747Z,92.90
2018-07-23T18:07:57.362Z,93.30
2018-07-23T18:10:24.956Z,93.30
2018-07-23T18:12:52.609Z,93.50
2018-07-23T18:15:20.206Z,93.60
2018-07-23T18:17:47.936Z,94.00
2018-07-23T18:20:15.544Z,95.10
2018-07-23T18:22:43.162Z,94.30
2018-07-23T18:25:10.789Z,96.80
2018-07-23T18:27:38.413Z,95.60
2018-07-23T18:30:06.283Z,97.30
2018-07-23T18:32:33.903Z,98.30
2018-07-23T18:35:01.505Z,99.20
2018-07-23T18:37:29.206Z,99.90
2018-07-23T18:39:56.811Z,99.90
2018-07-23T18:42:24.427Z,99.90
2018-07-23T18:44:52.019Z,99.90
2018-07-23T18:47:19.634Z,99.90
2018-07-23T18:49:49.438Z,99.90
2018-07-23T18:52:17.795Z,99.90
2018-07-23T18:54:46.835Z,99.90
2018-07-23T18:57:14.486Z,99.90
2018-07-23T19:02:11.203Z,99.90
2018-07-23T19:04:38.899Z,99.90
2018-07-23T19:07:06.829Z,99.90
2018-07-23T19:09:34.507Z,99.90
2018-07-23T19:12:02.104Z,99.90
2018-07-23T19:14:29.779Z,99.90
2018-07-23T19:16:58.273Z,99.90
2018-07-23T19:19:25.939Z,99.90
2018-07-23T19:21:53.599Z,99.90
2018-07-23T19:24:21.222Z,99.90
2018-07-23T19:26:48.834Z,99.90
2018-07-23T19:29:16.540Z,99.90
2018-07-23T19:31:44.698Z,99.90
2018-07-23T19:34:12.366Z,99.90
2018-07-23T19:36:40.172Z,99.90
2018-07-23T19:39:08.374Z,99.90
2018-07-23T19:41:36.082Z,99.90
2018-07-23T19:44:03.765Z,99.90
2018-07-23T19:46:31.369Z,99.90
2018-07-23T19:48:59.015Z,99.90
2018-07-23T19:51:26.615Z,99.90
2018-07-23T19:53:54.235Z,99.90
2018-07-23T19:56:21.830Z,99.90
2018-07-23T19:58:49.550Z,99.90
2018-07-23T20:01:17.202Z,99.90
2018-07-23T20:03:44.891Z,99.90
2018-07-23T20:06:12.482Z,99.90
2018-07-23T20:08:40.098Z,99.90
2018-07-23T20:11:07.705Z,99.90
2018-07-23T20:13:35.327Z,99.90
2018-07-23T20:16:02.988Z,99.90
2018-07-23T20:18:30.590Z,99.90
2018-07-23T20:20:58.271Z,99.90
2018-07-23T20:23:25.839Z,99.90
2018-07-23T20:25:53.474Z,99.90
2018-07-23T20:28:21.113Z,99.90
2018-07-23T20:30:48.731Z,99.90
2018-07-23T20:33:16.331Z,99.90
2018-07-23T20:35:43.960Z,99.90
2018-07-23T20:38:11.557Z,99.90
2018-07-23T20:40:39.234Z,99.90
2018-07-23T20:43:06.822Z,99.90
2018-07-23T20:45:34.443Z,99.90
2018-07-23T20:48:02.048Z,99.90
2018-07-23T20:50:29.663Z,99.90
2018-07-23T20:52:57.256Z,99.90
2018-07-23T20:55:24.896Z,99.90
2018-07-23T20:57:52.490Z,99.90
2018-07-23T21:00:20.113Z,99.90
2018-07-23T21:02:47.727Z,99.90
2018-07-23T21:05:15.451Z,99.90
2018-07-23T21:07:43.051Z,99.90
2018-07-23T21:10:10.672Z,99.90
2018-07-23T21:12:38.287Z,99.90
2018-07-23T21:15:06.634Z,99.90
2018-07-23T21:17:34.202Z,99.90
2018-07-23T21:20:01.851Z,99.90
2018-07-23T21:22:29.467Z,99.90
2018-07-23T21:24:57.063Z,99.90
2018-07-23T21:27:24.721Z,99.90
2018-07-23T21:29:52.367Z,99.90
2018-07-23T21:32:19.988Z,99.90
2018-07-23T21:34:47.591Z,99.90
2018-07-23T21:37:15.207Z,99.90
2018-07-23T21:39:42.810Z,99.90
2018-07-23T21:42:10.423Z,99.90
2018-07-23T21:44:38.017Z,99.90
2018-07-23T21:47:05.631Z,99.90
2018-07-23T21:49:33.233Z,99.90
2018-07-23T21:52:00.859Z,99.90
2018-07-23T21:54:28.942Z,99.90
2018-07-23T21:56:56.603Z,99.90
2018-07-23T21:59:24.207Z,99.90
2018-07-23T22:01:51.839Z,99.90
2018-07-23T22:04:19.446Z,99.90
2018-07-23T22:06:47.068Z,99.90
2018-07-23T22:09:14.663Z,99.90
2018-07-23T22:11:42.279Z,99.90
2018-07-23T22:14:09.999Z,99.90
2018-07-23T22:16:38.235Z,99.90
2018-07-23T22:19:06.413Z,99.90
2018-07-23T22:21:34.064Z,99.90
2018-07-23T22:26:29.064Z,99.90
2018-07-23T22:28:56.692Z,99.90
2018-07-23T22:31:24.317Z,99.90
2018-07-23T22:33:51.943Z,99.90
2018-07-23T22:36:19.822Z,99.90
2018-07-23T22:38:47.719Z,99.90
2018-07-23T22:41:15.314Z,99.90
2018-07-23T22:43:42.967Z,99.90
2018-07-23T22:46:10.587Z,99.90
2018-07-23T22:48:38.203Z,99.90
2018-07-23T22:51:05.811Z,99.90
2018-07-23T22:53:33.447Z,99.90
2018-07-23T22:56:01.075Z,99.90
2018-07-23T22:58:28.687Z,99.90
2018-07-23T23:00:56.335Z,99.90
2018-07-23T23:03:23.951Z,99.90
2018-07-23T23:05:51.551Z,99.90
2018-07-23T23:08:19.167Z,99.90
2018-07-23T23:10:46.762Z,99.90
2018-07-23T23:13:14.411Z,99.90
2018-07-23T23:15:42.112Z,99.90
2018-07-23T23:18:09.723Z,99.90
2018-07-23T23:20:37.436Z,99.90
2018-07-23T23:23:05.055Z,99.90
2018-07-23T23:25:32.671Z,99.90
2018-07-23T23:28:00.287Z,99.90
2018-07-23T23:30:27.959Z,99.90
2018-07-23T23:32:55.576Z,99.90
2018-07-23T23:35:23.179Z,99.90
2018-07-23T23:37:50.807Z,99.90
2018-07-23T23:40:18.402Z,99.90
2018-07-23T23:42:46.158Z,99.90
2018-07-23T23:45:13.776Z,99.90
2018-07-23T23:47:41.368Z,99.90
2018-07-23T23:50:09.474Z,99.90
2018-07-23T23:52:37.087Z,99.90
2018-07-23T23:55:04.803Z,99.90
2018-07-23T23:57:32.782Z,99.90
